sensor_id;sensor_type;location;lat;lon;timestamp;P1;durP1;ratioP1;P2;durP2;ratioP2
20067;SDS011;10194;50.824;7.134;2023-05-07T00:01:59;135.60;;;69.67;;
20067;SDS011;10194;50.824;7.134;2023-05-07T00:04:25;136.60;;;69.93;;
20067;SDS011;10194;50.824;7.134;2023-05-07T00:06:52;134.33;;;69.70;;
20067;SDS011;10194;50.824;7.134;2023-05-07T00:09:18;140.97;;;71.43;;
20067;SDS011;10194;50.824;7.134;2023-05-07T00:11:43;135.60;;;70.37;;
20067;SDS011;10194;50.824;7.134;2023-05-07T00:14:12;133.63;;;69.43;;
20067;SDS011;10194;50.824;7.134;2023-05-07T00:16:46;136.80;;;69.97;;
20067;SDS011;10194;50.824;7.134;2023-05-07T00:19:12;137.83;;;70.97;;
20067;SDS011;10194;50.824;7.134;2023-05-07T00:21:41;137.00;;;70.00;;
20067;SDS011;10194;50.824;7.134;2023-05-07T00:24:07;136.00;;;70.07;;
20067;SDS011;10194;50.824;7.134;2023-05-07T00:26:34;138.53;;;70.97;;
20067;SDS011;10194;50.824;7.134;2023-05-07T00:29:00;141.07;;;73.23;;
20067;SDS011;10194;50.824;7.134;2023-05-07T00:31:26;145.37;;;76.03;;
20067;SDS011;10194;50.824;7.134;2023-05-07T00:33:52;145.20;;;76.33;;
20067;SDS011;10194;50.824;7.134;2023-05-07T00:36:20;141.90;;;74.47;;
20067;SDS011;10194;50.824;7.134;2023-05-07T00:38:49;141.17;;;73.87;;
20067;SDS011;10194;50.824;7.134;2023-05-07T00:41:15;138.87;;;72.83;;
20067;SDS011;10194;50.824;7.134;2023-05-07T00:43:44;139.20;;;71.80;;
20067;SDS011;10194;50.824;7.134;2023-05-07T00:46:10;138.17;;;71.57;;
20067;SDS011;10194;50.824;7.134;2023-05-07T00:48:40;141.17;;;71.83;;
20067;SDS011;10194;50.824;7.134;2023-05-07T00:51:10;136.23;;;70.80;;
20067;SDS011;10194;50.824;7.134;2023-05-07T00:53:37;138.20;;;70.90;;
20067;SDS011;10194;50.824;7.134;2023-05-07T00:56:04;142.27;;;71.53;;
20067;SDS011;10194;50.824;7.134;2023-05-07T00:58:31;137.00;;;70.50;;
20067;SDS011;10194;50.824;7.134;2023-05-07T01:00:58;137.73;;;70.17;;
20067;SDS011;10194;50.824;7.134;2023-05-07T01:03:24;141.33;;;70.67;;
20067;SDS011;10194;50.824;7.134;2023-05-07T01:05:50;138.27;;;69.10;;
20067;SDS011;10194;50.824;7.134;2023-05-07T01:08:19;137.53;;;69.97;;
20067;SDS011;10194;50.824;7.134;2023-05-07T01:10:45;137.10;;;69.33;;
20067;SDS011;10194;50.824;7.134;2023-05-07T01:13:12;135.03;;;68.87;;
20067;SDS011;10194;50.824;7.134;2023-05-07T01:15:39;136.07;;;69.07;;
20067;SDS011;10194;50.824;7.134;2023-05-07T01:18:06;136.80;;;68.93;;
20067;SDS011;10194;50.824;7.134;2023-05-07T01:20:32;136.87;;;70.20;;
20067;SDS011;10194;50.824;7.134;2023-05-07T01:22:58;136.20;;;69.93;;
20067;SDS011;10194;50.824;7.134;2023-05-07T01:25:25;136.40;;;69.73;;
20067;SDS011;10194;50.824;7.134;2023-05-07T01:27:52;139.23;;;68.90;;
20067;SDS011;10194;50.824;7.134;2023-05-07T01:30:17;139.80;;;70.10;;
20067;SDS011;10194;50.824;7.134;2023-05-07T01:32:48;139.70;;;69.70;;
20067;SDS011;10194;50.824;7.134;2023-05-07T01:35:18;134.80;;;68.90;;
20067;SDS011;10194;50.824;7.134;2023-05-07T01:37:47;136.27;;;69.20;;
20067;SDS011;10194;50.824;7.134;2023-05-07T01:40:14;142.20;;;70.77;;
20067;SDS011;10194;50.824;7.134;2023-05-07T01:42:41;138.03;;;70.90;;
20067;SDS011;10194;50.824;7.134;2023-05-07T01:45:08;137.20;;;69.83;;
20067;SDS011;10194;50.824;7.134;2023-05-07T01:47:35;137.90;;;70.43;;
20067;SDS011;10194;50.824;7.134;2023-05-07T01:50:01;136.83;;;69.07;;
20067;SDS011;10194;50.824;7.134;2023-05-07T01:52:29;136.93;;;69.60;;
20067;SDS011;10194;50.824;7.134;2023-05-07T01:54:56;136.17;;;68.83;;
20067;SDS011;10194;50.824;7.134;2023-05-07T01:57:22;135.73;;;68.97;;
20067;SDS011;10194;50.824;7.134;2023-05-07T01:59:47;137.37;;;69.03;;
20067;SDS011;10194;50.824;7.134;2023-05-07T02:02:13;139.03;;;69.60;;
20067;SDS011;10194;50.824;7.134;2023-05-07T02:04:39;138.33;;;69.33;;
20067;SDS011;10194;50.824;7.134;2023-05-07T02:07:05;135.07;;;68.30;;
20067;SDS011;10194;50.824;7.134;2023-05-07T02:09:30;142.67;;;70.40;;
20067;SDS011;10194;50.824;7.134;2023-05-07T02:11:56;136.33;;;69.20;;
20067;SDS011;10194;50.824;7.134;2023-05-07T02:14:22;136.47;;;68.83;;
20067;SDS011;10194;50.824;7.134;2023-05-07T02:16:48;138.67;;;68.83;;
20067;SDS011;10194;50.824;7.134;2023-05-07T02:19:13;137.80;;;69.50;;
20067;SDS011;10194;50.824;7.134;2023-05-07T02:21:39;135.83;;;68.60;;
20067;SDS011;10194;50.824;7.134;2023-05-07T02:24:05;136.80;;;68.43;;
20067;SDS011;10194;50.824;7.134;2023-05-07T02:26:31;136.30;;;68.37;;
20067;SDS011;10194;50.824;7.134;2023-05-07T02:28:56;139.00;;;69.67;;
20067;SDS011;10194;50.824;7.134;2023-05-07T02:31:22;136.93;;;68.43;;
20067;SDS011;10194;50.824;7.134;2023-05-07T02:33:48;137.60;;;68.80;;
20067;SDS011;10194;50.824;7.134;2023-05-07T02:36:14;138.27;;;69.10;;
20067;SDS011;10194;50.824;7.134;2023-05-07T02:38:39;137.43;;;68.93;;
20067;SDS011;10194;50.824;7.134;2023-05-07T02:41:05;137.60;;;69.27;;
20067;SDS011;10194;50.824;7.134;2023-05-07T02:43:31;137.20;;;69.33;;
20067;SDS011;10194;50.824;7.134;2023-05-07T02:46:00;139.00;;;70.07;;
20067;SDS011;10194;50.824;7.134;2023-05-07T02:48:27;139.87;;;71.17;;
20067;SDS011;10194;50.824;7.134;2023-05-07T02:50:53;139.70;;;71.43;;
20067;SDS011;10194;50.824;7.134;2023-05-07T02:53:19;140.03;;;70.93;;
20067;SDS011;10194;50.824;7.134;2023-05-07T02:55:45;139.50;;;70.50;;
20067;SDS011;10194;50.824;7.134;2023-05-07T02:58:10;137.47;;;70.40;;
20067;SDS011;10194;50.824;7.134;2023-05-07T03:00:36;142.63;;;71.27;;
20067;SDS011;10194;50.824;7.134;2023-05-07T03:03:02;138.20;;;70.17;;
20067;SDS011;10194;50.824;7.134;2023-05-07T03:05:28;138.37;;;70.67;;
20067;SDS011;10194;50.824;7.134;2023-05-07T03:07:54;139.40;;;70.77;;
20067;SDS011;10194;50.824;7.134;2023-05-07T03:10:19;138.77;;;70.87;;
20067;SDS011;10194;50.824;7.134;2023-05-07T03:12:45;136.63;;;70.13;;
20067;SDS011;10194;50.824;7.134;2023-05-07T03:15:11;136.87;;;69.60;;
20067;SDS011;10194;50.824;7.134;2023-05-07T03:17:37;138.33;;;69.37;;
20067;SDS011;10194;50.824;7.134;2023-05-07T03:20:04;135.87;;;68.97;;
20067;SDS011;10194;50.824;7.134;2023-05-07T03:22:30;135.43;;;68.87;;
20067;SDS011;10194;50.824;7.134;2023-05-07T03:24:56;137.80;;;69.90;;
20067;SDS011;10194;50.824;7.134;2023-05-07T03:27:22;136.33;;;70.17;;
20067;SDS011;10194;50.824;7.134;2023-05-07T03:29:48;136.57;;;69.83;;
20067;SDS011;10194;50.824;7.134;2023-05-07T03:32:13;136.10;;;69.87;;
20067;SDS011;10194;50.824;7.134;2023-05-07T03:34:39;136.03;;;69.80;;
20067;SDS011;10194;50.824;7.134;2023-05-07T03:37:05;137.97;;;70.63;;
20067;SDS011;10194;50.824;7.134;2023-05-07T03:39:31;140.03;;;71.20;;
20067;SDS011;10194;50.824;7.134;2023-05-07T03:41:57;137.93;;;70.07;;
20067;SDS011;10194;50.824;7.134;2023-05-07T03:44:23;138.07;;;70.10;;
20067;SDS011;10194;50.824;7.134;2023-05-07T03:46:49;137.57;;;70.00;;
20067;SDS011;10194;50.824;7.134;2023-05-07T03:49:14;138.80;;;70.57;;
20067;SDS011;10194;50.824;7.134;2023-05-07T03:51:40;136.70;;;70.40;;
20067;SDS011;10194;50.824;7.134;2023-05-07T03:54:06;135.93;;;69.97;;
20067;SDS011;10194;50.824;7.134;2023-05-07T03:56:32;138.10;;;69.57;;
20067;SDS011;10194;50.824;7.134;2023-05-07T03:58:58;136.17;;;69.80;;
20067;SDS011;10194;50.824;7.134;2023-05-07T04:01:25;135.50;;;69.73;;
20067;SDS011;10194;50.824;7.134;2023-05-07T04:03:51;136.57;;;69.47;;
20067;SDS011;10194;50.824;7.134;2023-05-07T04:06:17;140.17;;;70.13;;
20067;SDS011;10194;50.824;7.134;2023-05-07T04:08:42;135.87;;;69.70;;
20067;SDS011;10194;50.824;7.134;2023-05-07T04:11:08;137.20;;;69.50;;
20067;SDS011;10194;50.824;7.134;2023-05-07T04:13:34;140.60;;;70.20;;
20067;SDS011;10194;50.824;7.134;2023-05-07T04:16:01;139.60;;;70.73;;
20067;SDS011;10194;50.824;7.134;2023-05-07T04:18:28;135.50;;;69.03;;
20067;SDS011;10194;50.824;7.134;2023-05-07T04:20:54;133.47;;;68.47;;
20067;SDS011;10194;50.824;7.134;2023-05-07T04:23:20;136.67;;;69.63;;
20067;SDS011;10194;50.824;7.134;2023-05-07T04:25:46;135.10;;;68.47;;
20067;SDS011;10194;50.824;7.134;2023-05-07T04:28:12;134.70;;;69.53;;
20067;SDS011;10194;50.824;7.134;2023-05-07T04:30:38;137.27;;;70.23;;
20067;SDS011;10194;50.824;7.134;2023-05-07T04:33:04;136.33;;;69.63;;
20067;SDS011;10194;50.824;7.134;2023-05-07T04:35:29;138.03;;;69.57;;
20067;SDS011;10194;50.824;7.134;2023-05-07T04:37:55;137.30;;;70.10;;
20067;SDS011;10194;50.824;7.134;2023-05-07T04:40:21;136.60;;;69.47;;
20067;SDS011;10194;50.824;7.134;2023-05-07T04:42:47;140.80;;;69.70;;
20067;SDS011;10194;50.824;7.134;2023-05-07T04:45:13;135.57;;;69.07;;
20067;SDS011;10194;50.824;7.134;2023-05-07T04:47:39;137.20;;;68.93;;
20067;SDS011;10194;50.824;7.134;2023-05-07T04:50:05;140.67;;;69.50;;
20067;SDS011;10194;50.824;7.134;2023-05-07T04:52:33;136.83;;;69.73;;
20067;SDS011;10194;50.824;7.134;2023-05-07T04:54:59;135.70;;;69.10;;
20067;SDS011;10194;50.824;7.134;2023-05-07T04:57:26;138.60;;;70.40;;
20067;SDS011;10194;50.824;7.134;2023-05-07T04:59:52;135.80;;;69.27;;
20067;SDS011;10194;50.824;7.134;2023-05-07T05:02:18;135.50;;;68.93;;
20067;SDS011;10194;50.824;7.134;2023-05-07T05:04:44;135.97;;;68.67;;
20067;SDS011;10194;50.824;7.134;2023-05-07T05:07:10;135.27;;;68.83;;
20067;SDS011;10194;50.824;7.134;2023-05-07T05:09:36;138.10;;;69.70;;
20067;SDS011;10194;50.824;7.134;2023-05-07T05:12:02;135.17;;;69.27;;
20067;SDS011;10194;50.824;7.134;2023-05-07T05:14:28;135.77;;;69.23;;
20067;SDS011;10194;50.824;7.134;2023-05-07T05:16:54;134.83;;;68.90;;
20067;SDS011;10194;50.824;7.134;2023-05-07T05:19:20;143.60;;;72.00;;
20067;SDS011;10194;50.824;7.134;2023-05-07T05:21:46;136.73;;;69.53;;
20067;SDS011;10194;50.824;7.134;2023-05-07T05:24:12;135.90;;;69.73;;
20067;SDS011;10194;50.824;7.134;2023-05-07T05:26:37;133.50;;;69.13;;
20067;SDS011;10194;50.824;7.134;2023-05-07T05:29:03;136.13;;;70.77;;
20067;SDS011;10194;50.824;7.134;2023-05-07T05:31:29;136.40;;;70.13;;
20067;SDS011;10194;50.824;7.134;2023-05-07T05:33:55;137.17;;;71.23;;
20067;SDS011;10194;50.824;7.134;2023-05-07T05:36:20;138.87;;;71.20;;
20067;SDS011;10194;50.824;7.134;2023-05-07T05:38:46;137.70;;;71.77;;
20067;SDS011;10194;50.824;7.134;2023-05-07T05:41:12;139.03;;;72.03;;
20067;SDS011;10194;50.824;7.134;2023-05-07T05:43:38;137.63;;;72.87;;
20067;SDS011;10194;50.824;7.134;2023-05-07T05:46:03;140.47;;;73.10;;
20067;SDS011;10194;50.824;7.134;2023-05-07T05:48:29;137.30;;;72.23;;
20067;SDS011;10194;50.824;7.134;2023-05-07T05:50:55;136.30;;;72.80;;
20067;SDS011;10194;50.824;7.134;2023-05-07T05:53:21;137.67;;;73.30;;
20067;SDS011;10194;50.824;7.134;2023-05-07T05:55:47;138.40;;;73.27;;
20067;SDS011;10194;50.824;7.134;2023-05-07T05:58:12;139.97;;;72.93;;
20067;SDS011;10194;50.824;7.134;2023-05-07T06:00:40;137.57;;;72.13;;
20067;SDS011;10194;50.824;7.134;2023-05-07T06:03:05;135.90;;;72.00;;
20067;SDS011;10194;50.824;7.134;2023-05-07T06:05:31;139.20;;;71.47;;
20067;SDS011;10194;50.824;7.134;2023-05-07T06:07:57;138.37;;;72.20;;
20067;SDS011;10194;50.824;7.134;2023-05-07T06:10:22;137.80;;;72.07;;
20067;SDS011;10194;50.824;7.134;2023-05-07T06:12:49;137.17;;;71.80;;
20067;SDS011;10194;50.824;7.134;2023-05-07T06:15:14;138.50;;;72.77;;
20067;SDS011;10194;50.824;7.134;2023-05-07T06:17:40;137.80;;;72.80;;
20067;SDS011;10194;50.824;7.134;2023-05-07T06:20:06;143.50;;;74.20;;
20067;SDS011;10194;50.824;7.134;2023-05-07T06:22:33;140.47;;;73.30;;
20067;SDS011;10194;50.824;7.134;2023-05-07T06:24:58;137.90;;;72.70;;
20067;SDS011;10194;50.824;7.134;2023-05-07T06:27:24;136.30;;;71.90;;
20067;SDS011;10194;50.824;7.134;2023-05-07T06:29:50;136.33;;;72.03;;
20067;SDS011;10194;50.824;7.134;2023-05-07T06:32:16;140.40;;;72.23;;
20067;SDS011;10194;50.824;7.134;2023-05-07T06:34:42;137.10;;;71.73;;
20067;SDS011;10194;50.824;7.134;2023-05-07T06:37:08;138.03;;;72.07;;
20067;SDS011;10194;50.824;7.134;2023-05-07T06:39:33;144.27;;;73.97;;
20067;SDS011;10194;50.824;7.134;2023-05-07T06:42:00;138.03;;;72.80;;
20067;SDS011;10194;50.824;7.134;2023-05-07T06:44:27;138.47;;;73.50;;
20067;SDS011;10194;50.824;7.134;2023-05-07T06:46:53;137.47;;;73.50;;
20067;SDS011;10194;50.824;7.134;2023-05-07T06:49:18;141.93;;;75.13;;
20067;SDS011;10194;50.824;7.134;2023-05-07T06:51:44;139.30;;;73.83;;
20067;SDS011;10194;50.824;7.134;2023-05-07T06:54:10;138.13;;;73.77;;
20067;SDS011;10194;50.824;7.134;2023-05-07T06:56:36;137.97;;;74.00;;
20067;SDS011;10194;50.824;7.134;2023-05-07T06:59:02;137.03;;;73.40;;
20067;SDS011;10194;50.824;7.134;2023-05-07T07:01:28;140.17;;;74.17;;
20067;SDS011;10194;50.824;7.134;2023-05-07T07:03:54;139.40;;;73.50;;
20067;SDS011;10194;50.824;7.134;2023-05-07T07:06:20;135.73;;;72.63;;
20067;SDS011;10194;50.824;7.134;2023-05-07T07:08:46;136.57;;;72.97;;
20067;SDS011;10194;50.824;7.134;2023-05-07T07:11:12;136.27;;;72.67;;
20067;SDS011;10194;50.824;7.134;2023-05-07T07:13:37;138.23;;;74.23;;
20067;SDS011;10194;50.824;7.134;2023-05-07T07:16:03;141.27;;;75.37;;
20067;SDS011;10194;50.824;7.134;2023-05-07T07:18:29;142.80;;;76.33;;
20067;SDS011;10194;50.824;7.134;2023-05-07T07:20:55;142.17;;;78.63;;
20067;SDS011;10194;50.824;7.134;2023-05-07T07:23:21;143.40;;;81.67;;
20067;SDS011;10194;50.824;7.134;2023-05-07T07:25:46;142.77;;;83.73;;
20067;SDS011;10194;50.824;7.134;2023-05-07T07:28:12;142.33;;;85.67;;
20067;SDS011;10194;50.824;7.134;2023-05-07T07:30:38;144.87;;;86.70;;
20067;SDS011;10194;50.824;7.134;2023-05-07T07:33:04;145.77;;;86.73;;
20067;SDS011;10194;50.824;7.134;2023-05-07T07:35:30;142.07;;;82.87;;
20067;SDS011;10194;50.824;7.134;2023-05-07T07:38:00;146.33;;;84.53;;
20067;SDS011;10194;50.824;7.134;2023-05-07T07:40:26;141.87;;;81.13;;
20067;SDS011;10194;50.824;7.134;2023-05-07T07:42:53;141.63;;;79.77;;
20067;SDS011;10194;50.824;7.134;2023-05-07T07:45:19;142.57;;;79.67;;
20067;SDS011;10194;50.824;7.134;2023-05-07T07:47:45;137.83;;;77.83;;
20067;SDS011;10194;50.824;7.134;2023-05-07T07:50:11;139.73;;;77.73;;
20067;SDS011;10194;50.824;7.134;2023-05-07T07:52:37;144.70;;;77.73;;
20067;SDS011;10194;50.824;7.134;2023-05-07T07:55:03;139.93;;;78.03;;
20067;SDS011;10194;50.824;7.134;2023-05-07T07:57:29;137.50;;;76.40;;
20067;SDS011;10194;50.824;7.134;2023-05-07T07:59:55;136.00;;;75.33;;
20067;SDS011;10194;50.824;7.134;2023-05-07T08:02:21;140.60;;;76.07;;
20067;SDS011;10194;50.824;7.134;2023-05-07T08:04:47;141.87;;;77.50;;
20067;SDS011;10194;50.824;7.134;2023-05-07T08:07:13;139.07;;;77.10;;
20067;SDS011;10194;50.824;7.134;2023-05-07T08:09:39;142.37;;;77.87;;
20067;SDS011;10194;50.824;7.134;2023-05-07T08:12:05;139.33;;;77.23;;
20067;SDS011;10194;50.824;7.134;2023-05-07T08:14:32;139.07;;;76.97;;
20067;SDS011;10194;50.824;7.134;2023-05-07T08:16:59;139.03;;;76.90;;
20067;SDS011;10194;50.824;7.134;2023-05-07T08:19:24;146.73;;;78.57;;
20067;SDS011;10194;50.824;7.134;2023-05-07T08:21:50;139.13;;;76.77;;
20067;SDS011;10194;50.824;7.134;2023-05-07T08:24:16;142.40;;;79.10;;
20067;SDS011;10194;50.824;7.134;2023-05-07T08:26:43;140.40;;;79.17;;
20067;SDS011;10194;50.824;7.134;2023-05-07T08:29:09;139.63;;;78.33;;
20067;SDS011;10194;50.824;7.134;2023-05-07T08:31:35;143.73;;;78.97;;
20067;SDS011;10194;50.824;7.134;2023-05-07T08:34:01;139.83;;;78.43;;
20067;SDS011;10194;50.824;7.134;2023-05-07T08:36:28;142.27;;;80.77;;
20067;SDS011;10194;50.824;7.134;2023-05-07T08:38:54;139.73;;;79.00;;
20067;SDS011;10194;50.824;7.134;2023-05-07T08:41:20;142.50;;;79.50;;
20067;SDS011;10194;50.824;7.134;2023-05-07T08:43:49;143.37;;;80.30;;
20067;SDS011;10194;50.824;7.134;2023-05-07T08:46:17;138.97;;;79.77;;
20067;SDS011;10194;50.824;7.134;2023-05-07T08:48:47;143.27;;;80.00;;
20067;SDS011;10194;50.824;7.134;2023-05-07T08:51:18;138.13;;;77.83;;
20067;SDS011;10194;50.824;7.134;2023-05-07T08:53:46;138.87;;;78.03;;
20067;SDS011;10194;50.824;7.134;2023-05-07T08:56:14;142.70;;;80.80;;
20067;SDS011;10194;50.824;7.134;2023-05-07T08:58:40;141.97;;;79.70;;
20067;SDS011;10194;50.824;7.134;2023-05-07T09:01:08;143.07;;;82.50;;
20067;SDS011;10194;50.824;7.134;2023-05-07T09:03:38;141.20;;;81.17;;
20067;SDS011;10194;50.824;7.134;2023-05-07T09:06:04;141.10;;;82.13;;
20067;SDS011;10194;50.824;7.134;2023-05-07T09:08:32;144.57;;;82.60;;
20067;SDS011;10194;50.824;7.134;2023-05-07T09:10:59;149.67;;;83.30;;
20067;SDS011;10194;50.824;7.134;2023-05-07T09:13:25;142.27;;;81.70;;
20067;SDS011;10194;50.824;7.134;2023-05-07T09:15:53;141.13;;;82.07;;
20067;SDS011;10194;50.824;7.134;2023-05-07T09:18:20;142.70;;;82.40;;
20067;SDS011;10194;50.824;7.134;2023-05-07T09:20:46;142.40;;;82.77;;
20067;SDS011;10194;50.824;7.134;2023-05-07T09:23:12;144.27;;;83.43;;
20067;SDS011;10194;50.824;7.134;2023-05-07T09:25:37;142.57;;;84.53;;
20067;SDS011;10194;50.824;7.134;2023-05-07T09:28:04;144.57;;;85.70;;
20067;SDS011;10194;50.824;7.134;2023-05-07T09:30:35;141.53;;;82.10;;
20067;SDS011;10194;50.824;7.134;2023-05-07T09:33:02;141.77;;;82.37;;
20067;SDS011;10194;50.824;7.134;2023-05-07T09:35:29;141.63;;;82.87;;
20067;SDS011;10194;50.824;7.134;2023-05-07T09:37:56;142.50;;;82.83;;
20067;SDS011;10194;50.824;7.134;2023-05-07T09:40:27;142.37;;;83.47;;
20067;SDS011;10194;50.824;7.134;2023-05-07T09:42:55;144.83;;;84.57;;
20067;SDS011;10194;50.824;7.134;2023-05-07T09:45:23;141.23;;;83.00;;
20067;SDS011;10194;50.824;7.134;2023-05-07T09:47:53;146.20;;;85.77;;
20067;SDS011;10194;50.824;7.134;2023-05-07T09:50:32;158.00;;;98.97;;
20067;SDS011;10194;50.824;7.134;2023-05-07T09:53:03;145.40;;;85.40;;
20067;SDS011;10194;50.824;7.134;2023-05-07T09:55:30;143.17;;;85.63;;
20067;SDS011;10194;50.824;7.134;2023-05-07T09:57:56;142.77;;;85.40;;
20067;SDS011;10194;50.824;7.134;2023-05-07T10:00:24;144.70;;;86.10;;
20067;SDS011;10194;50.824;7.134;2023-05-07T10:02:52;144.37;;;86.30;;
20067;SDS011;10194;50.824;7.134;2023-05-07T10:05:18;145.27;;;87.43;;
20067;SDS011;10194;50.824;7.134;2023-05-07T10:07:47;144.40;;;87.40;;
20067;SDS011;10194;50.824;7.134;2023-05-07T10:10:14;146.47;;;89.13;;
20067;SDS011;10194;50.824;7.134;2023-05-07T10:12:41;154.50;;;96.60;;
20067;SDS011;10194;50.824;7.134;2023-05-07T10:15:10;148.97;;;91.00;;
20067;SDS011;10194;50.824;7.134;2023-05-07T10:17:37;150.37;;;93.87;;
20067;SDS011;10194;50.824;7.134;2023-05-07T10:20:04;145.93;;;87.93;;
20067;SDS011;10194;50.824;7.134;2023-05-07T10:22:33;146.07;;;88.20;;
20067;SDS011;10194;50.824;7.134;2023-05-07T10:25:06;146.80;;;89.37;;
20067;SDS011;10194;50.824;7.134;2023-05-07T10:27:42;148.23;;;90.60;;
20067;SDS011;10194;50.824;7.134;2023-05-07T10:32:55;156.90;;;99.20;;
20067;SDS011;10194;50.824;7.134;2023-05-07T10:35:31;155.57;;;99.50;;
20067;SDS011;10194;50.824;7.134;2023-05-07T10:38:03;146.40;;;90.33;;
20067;SDS011;10194;50.824;7.134;2023-05-07T10:40:30;148.33;;;89.27;;
20067;SDS011;10194;50.824;7.134;2023-05-07T10:42:57;149.37;;;90.80;;
20067;SDS011;10194;50.824;7.134;2023-05-07T10:45:29;144.23;;;85.23;;
20067;SDS011;10194;50.824;7.134;2023-05-07T10:48:08;154.17;;;95.43;;
20067;SDS011;10194;50.824;7.134;2023-05-07T10:50:34;150.90;;;93.70;;
20067;SDS011;10194;50.824;7.134;2023-05-07T10:55:42;157.33;;;101.40;;
20067;SDS011;10194;50.824;7.134;2023-05-07T11:00:58;160.60;;;106.03;;
20067;SDS011;10194;50.824;7.134;2023-05-07T11:03:26;153.10;;;98.43;;
20067;SDS011;10194;50.824;7.134;2023-05-07T11:06:12;150.33;;;94.60;;
20067;SDS011;10194;50.824;7.134;2023-05-07T11:11:18;153.10;;;96.80;;
20067;SDS011;10194;50.824;7.134;2023-05-07T11:13:47;151.60;;;95.90;;
20067;SDS011;10194;50.824;7.134;2023-05-07T11:16:24;147.20;;;91.77;;
20067;SDS011;10194;50.824;7.134;2023-05-07T11:18:52;158.93;;;104.43;;
20067;SDS011;10194;50.824;7.134;2023-05-07T11:21:33;153.00;;;98.70;;
20067;SDS011;10194;50.824;7.134;2023-05-07T11:24:05;155.33;;;98.87;;
20067;SDS011;10194;50.824;7.134;2023-05-07T11:26:45;157.17;;;102.90;;
20067;SDS011;10194;50.824;7.134;2023-05-07T11:29:19;147.73;;;92.70;;
20067;SDS011;10194;50.824;7.134;2023-05-07T11:31:49;144.97;;;90.43;;
20067;SDS011;10194;50.824;7.134;2023-05-07T11:34:23;154.47;;;100.27;;
20067;SDS011;10194;50.824;7.134;2023-05-07T11:36:51;146.37;;;91.40;;
20067;SDS011;10194;50.824;7.134;2023-05-07T11:41:58;155.53;;;97.83;;
20067;SDS011;10194;50.824;7.134;2023-05-07T11:44:25;147.87;;;91.63;;
20067;SDS011;10194;50.824;7.134;2023-05-07T11:47:05;157.83;;;99.20;;
20067;SDS011;10194;50.824;7.134;2023-05-07T11:49:31;161.50;;;102.93;;
20067;SDS011;10194;50.824;7.134;2023-05-07T11:51:57;163.07;;;107.93;;
20067;SDS011;10194;50.824;7.134;2023-05-07T11:54:23;159.33;;;105.17;;
20067;SDS011;10194;50.824;7.134;2023-05-07T11:56:49;154.33;;;100.60;;
20067;SDS011;10194;50.824;7.134;2023-05-07T11:59:18;153.60;;;98.30;;
20067;SDS011;10194;50.824;7.134;2023-05-07T12:01:47;186.57;;;124.50;;
20067;SDS011;10194;50.824;7.134;2023-05-07T12:04:13;154.53;;;101.20;;
20067;SDS011;10194;50.824;7.134;2023-05-07T12:06:39;156.03;;;105.07;;
20067;SDS011;10194;50.824;7.134;2023-05-07T12:09:04;161.13;;;110.90;;
20067;SDS011;10194;50.824;7.134;2023-05-07T12:11:32;155.40;;;104.07;;
20067;SDS011;10194;50.824;7.134;2023-05-07T12:13:58;157.47;;;107.60;;
20067;SDS011;10194;50.824;7.134;2023-05-07T12:16:24;163.17;;;115.27;;
20067;SDS011;10194;50.824;7.134;2023-05-07T12:18:50;166.70;;;116.87;;
20067;SDS011;10194;50.824;7.134;2023-05-07T12:21:19;165.77;;;112.87;;
20067;SDS011;10194;50.824;7.134;2023-05-07T12:23:45;164.17;;;117.97;;
20067;SDS011;10194;50.824;7.134;2023-05-07T12:26:11;163.97;;;116.70;;
20067;SDS011;10194;50.824;7.134;2023-05-07T12:28:38;160.63;;;112.53;;
20067;SDS011;10194;50.824;7.134;2023-05-07T12:31:04;166.37;;;116.00;;
20067;SDS011;10194;50.824;7.134;2023-05-07T12:33:31;164.47;;;113.70;;
20067;SDS011;10194;50.824;7.134;2023-05-07T12:35:57;159.37;;;109.07;;
20067;SDS011;10194;50.824;7.134;2023-05-07T12:38:32;162.47;;;113.43;;
20067;SDS011;10194;50.824;7.134;2023-05-07T12:41:03;160.17;;;111.30;;
20067;SDS011;10194;50.824;7.134;2023-05-07T12:43:29;159.90;;;109.93;;
20067;SDS011;10194;50.824;7.134;2023-05-07T12:45:56;156.63;;;104.80;;
20067;SDS011;10194;50.824;7.134;2023-05-07T12:48:25;161.27;;;107.63;;
20067;SDS011;10194;50.824;7.134;2023-05-07T12:50:59;157.87;;;103.50;;
20067;SDS011;10194;50.824;7.134;2023-05-07T12:53:29;149.07;;;91.83;;
20067;SDS011;10194;50.824;7.134;2023-05-07T12:55:57;149.17;;;93.47;;
20067;SDS011;10194;50.824;7.134;2023-05-07T12:58:25;152.90;;;96.87;;
20067;SDS011;10194;50.824;7.134;2023-05-07T13:00:58;155.53;;;93.70;;
20067;SDS011;10194;50.824;7.134;2023-05-07T13:03:30;156.07;;;97.67;;
20067;SDS011;10194;50.824;7.134;2023-05-07T13:06:01;153.43;;;91.27;;
20067;SDS011;10194;50.824;7.134;2023-05-07T13:08:35;169.30;;;99.57;;
20067;SDS011;10194;50.824;7.134;2023-05-07T13:11:06;163.60;;;97.87;;
20067;SDS011;10194;50.824;7.134;2023-05-07T13:13:33;159.50;;;95.13;;
20067;SDS011;10194;50.824;7.134;2023-05-07T13:16:02;155.50;;;96.13;;
20067;SDS011;10194;50.824;7.134;2023-05-07T13:18:31;151.43;;;90.80;;
20067;SDS011;10194;50.824;7.134;2023-05-07T13:20:58;157.07;;;97.70;;
20067;SDS011;10194;50.824;7.134;2023-05-07T13:23:25;159.40;;;99.43;;
20067;SDS011;10194;50.824;7.134;2023-05-07T13:25:52;152.70;;;93.40;;
20067;SDS011;10194;50.824;7.134;2023-05-07T13:28:19;152.47;;;92.20;;
20067;SDS011;10194;50.824;7.134;2023-05-07T13:30:45;156.67;;;95.93;;
20067;SDS011;10194;50.824;7.134;2023-05-07T13:33:11;146.13;;;87.67;;
20067;SDS011;10194;50.824;7.134;2023-05-07T13:35:41;151.10;;;91.60;;
20067;SDS011;10194;50.824;7.134;2023-05-07T13:38:06;147.87;;;87.70;;
20067;SDS011;10194;50.824;7.134;2023-05-07T13:40:33;144.90;;;85.93;;
20067;SDS011;10194;50.824;7.134;2023-05-07T13:42:58;144.73;;;84.57;;
20067;SDS011;10194;50.824;7.134;2023-05-07T13:45:28;148.13;;;87.80;;
20067;SDS011;10194;50.824;7.134;2023-05-07T13:47:55;146.50;;;86.20;;
20067;SDS011;10194;50.824;7.134;2023-05-07T13:50:23;145.10;;;85.77;;
20067;SDS011;10194;50.824;7.134;2023-05-07T13:52:51;147.60;;;88.37;;
20067;SDS011;10194;50.824;7.134;2023-05-07T13:55:17;158.50;;;95.87;;
20067;SDS011;10194;50.824;7.134;2023-05-07T13:57:44;148.33;;;87.87;;
20067;SDS011;10194;50.824;7.134;2023-05-07T14:00:11;147.93;;;87.83;;
20067;SDS011;10194;50.824;7.134;2023-05-07T14:02:38;159.10;;;96.73;;
20067;SDS011;10194;50.824;7.134;2023-05-07T14:05:05;154.67;;;94.87;;
20067;SDS011;10194;50.824;7.134;2023-05-07T14:07:32;153.60;;;93.53;;
20067;SDS011;10194;50.824;7.134;2023-05-07T14:09:57;150.03;;;90.00;;
20067;SDS011;10194;50.824;7.134;2023-05-07T14:12:24;155.33;;;94.20;;
20067;SDS011;10194;50.824;7.134;2023-05-07T14:14:50;155.43;;;95.83;;
20067;SDS011;10194;50.824;7.134;2023-05-07T14:17:16;156.70;;;97.00;;
20067;SDS011;10194;50.824;7.134;2023-05-07T14:19:43;154.37;;;95.97;;
20067;SDS011;10194;50.824;7.134;2023-05-07T14:22:09;155.80;;;95.83;;